sensor_id;sensor_type;location;lat;lon;timestamp;temperature;humidity
12089;DHT22;6107;49.078;8.578;2022-12-19T00:02:08;-0.90;99.90
12089;DHT22;6107;49.078;8.578;2022-12-19T00:04:33;-1.00;99.90
12089;DHT22;6107;49.078;8.578;2022-12-19T00:06:59;-0.90;99.90
12089;DHT22;6107;49.078;8.578;2022-12-19T00:09:25;-0.80;99.90
12089;DHT22;6107;49.078;8.578;2022-12-19T00:11:53;-0.70;99.90
12089;DHT22;6107;49.078;8.578;2022-12-19T00:14:19;-0.50;99.90
12089;DHT22;6107;49.078;8.578;2022-12-19T00:16:44;-0.50;99.90
12089;DHT22;6107;49.078;8.578;2022-12-19T00:19:10;-0.50;99.90
12089;DHT22;6107;49.078;8.578;2022-12-19T00:21:36;-0.60;99.90
12089;DHT22;6107;49.078;8.578;2022-12-19T00:24:03;-0.60;99.90
12089;DHT22;6107;49.078;8.578;2022-12-19T00:26:38;-0.60;99.90
12089;DHT22;6107;49.078;8.578;2022-12-19T00:29:06;-0.70;99.90
12089;DHT22;6107;49.078;8.578;2022-12-19T00:31:34;-0.60;99.90
12089;DHT22;6107;49.078;8.578;2022-12-19T00:34:02;-0.50;99.90
12089;DHT22;6107;49.078;8.578;2022-12-19T00:36:32;-0.50;99.90
12089;DHT22;6107;49.078;8.578;2022-12-19T00:39:00;-0.50;99.90
12089;DHT22;6107;49.078;8.578;2022-12-19T00:41:31;-0.60;99.90
12089;DHT22;6107;49.078;8.578;2022-12-19T00:43:59;-0.50;99.90
12089;DHT22;6107;49.078;8.578;2022-12-19T00:46:25;-0.60;99.90
12089;DHT22;6107;49.078;8.578;2022-12-19T00:48:54;-0.60;99.90
12089;DHT22;6107;49.078;8.578;2022-12-19T00:51:22;-0.60;99.90
12089;DHT22;6107;49.078;8.578;2022-12-19T00:53:49;-0.70;99.90
12089;DHT22;6107;49.078;8.578;2022-12-19T00:56:18;-0.50;99.90
12089;DHT22;6107;49.078;8.578;2022-12-19T00:58:44;-0.50;99.90
12089;DHT22;6107;49.078;8.578;2022-12-19T01:01:22;-0.40;99.90
12089;DHT22;6107;49.078;8.578;2022-12-19T01:03:48;-0.40;99.90
12089;DHT22;6107;49.078;8.578;2022-12-19T01:06:14;-0.40;99.90
12089;DHT22;6107;49.078;8.578;2022-12-19T01:08:40;-0.40;99.90
12089;DHT22;6107;49.078;8.578;2022-12-19T01:11:06;-0.40;99.90
12089;DHT22;6107;49.078;8.578;2022-12-19T01:13:34;-0.30;99.90
12089;DHT22;6107;49.078;8.578;2022-12-19T01:16:04;-0.30;99.90
12089;DHT22;6107;49.078;8.578;2022-12-19T01:18:31;-0.20;99.90
12089;DHT22;6107;49.078;8.578;2022-12-19T01:20:59;-0.10;99.90
12089;DHT22;6107;49.078;8.578;2022-12-19T01:23:25;-0.20;99.90
12089;DHT22;6107;49.078;8.578;2022-12-19T01:25:52;-0.10;99.90
12089;DHT22;6107;49.078;8.578;2022-12-19T01:28:18;-0.20;99.90
12089;DHT22;6107;49.078;8.578;2022-12-19T01:30:44;-0.40;99.90
12089;DHT22;6107;49.078;8.578;2022-12-19T01:33:11;-0.40;99.90
12089;DHT22;6107;49.078;8.578;2022-12-19T01:35:38;-0.40;99.90
12089;DHT22;6107;49.078;8.578;2022-12-19T01:38:03;-0.50;99.90
12089;DHT22;6107;49.078;8.578;2022-12-19T01:40:30;-0.40;99.90
12089;DHT22;6107;49.078;8.578;2022-12-19T01:42:55;-0.40;99.90
12089;DHT22;6107;49.078;8.578;2022-12-19T01:45:26;-0.20;99.90
12089;DHT22;6107;49.078;8.578;2022-12-19T01:48:04;-0.10;99.90
12089;DHT22;6107;49.078;8.578;2022-12-19T01:50:43;0.00;99.90
12089;DHT22;6107;49.078;8.578;2022-12-19T01:53:12;-0.20;99.90
12089;DHT22;6107;49.078;8.578;2022-12-19T01:55:39;-0.20;99.90
12089;DHT22;6107;49.078;8.578;2022-12-19T01:58:06;-0.10;99.90
12089;DHT22;6107;49.078;8.578;2022-12-19T02:00:33;-0.10;99.90
12089;DHT22;6107;49.078;8.578;2022-12-19T02:03:05;-0.20;99.90
12089;DHT22;6107;49.078;8.578;2022-12-19T02:05:32;-0.20;99.90
12089;DHT22;6107;49.078;8.578;2022-12-19T02:07:58;-0.20;99.90
12089;DHT22;6107;49.078;8.578;2022-12-19T02:10:24;-0.10;99.90
12089;DHT22;6107;49.078;8.578;2022-12-19T02:12:50;-0.20;99.90
12089;DHT22;6107;49.078;8.578;2022-12-19T02:15:16;-0.10;99.90
12089;DHT22;6107;49.078;8.578;2022-12-19T02:18:03;-0.20;99.90
12089;DHT22;6107;49.078;8.578;2022-12-19T02:20:57;0.00;99.90
12089;DHT22;6107;49.078;8.578;2022-12-19T02:23:45;-0.10;99.90
12089;DHT22;6107;49.078;8.578;2022-12-19T02:32:09;-0.10;99.90
12089;DHT22;6107;49.078;8.578;2022-12-19T02:34:48;0.00;99.90
12089;DHT22;6107;49.078;8.578;2022-12-19T02:37:32;0.00;99.90
12089;DHT22;6107;49.078;8.578;2022-12-19T02:40:06;0.00;99.90
12089;DHT22;6107;49.078;8.578;2022-12-19T02:42:37;0.10;99.90
12089;DHT22;6107;49.078;8.578;2022-12-19T02:45:06;0.00;99.90
12089;DHT22;6107;49.078;8.578;2022-12-19T02:47:32;0.10;99.90
12089;DHT22;6107;49.078;8.578;2022-12-19T02:49:58;0.10;99.90
12089;DHT22;6107;49.078;8.578;2022-12-19T02:54:52;0.20;99.90
12089;DHT22;6107;49.078;8.578;2022-12-19T03:00:28;0.20;99.90
12089;DHT22;6107;49.078;8.578;2022-12-19T03:03:17;0.20;99.90
12089;DHT22;6107;49.078;8.578;2022-12-19T03:06:06;0.20;99.90
12089;DHT22;6107;49.078;8.578;2022-12-19T03:08:50;0.30;99.90
12089;DHT22;6107;49.078;8.578;2022-12-19T03:11:20;0.30;99.90
12089;DHT22;6107;49.078;8.578;2022-12-19T03:13:54;0.30;99.90
12089;DHT22;6107;49.078;8.578;2022-12-19T03:16:22;0.30;99.90
12089;DHT22;6107;49.078;8.578;2022-12-19T03:18:48;0.20;99.90
12089;DHT22;6107;49.078;8.578;2022-12-19T03:23:47;0.20;99.90
12089;DHT22;6107;49.078;8.578;2022-12-19T03:26:19;0.30;99.90
12089;DHT22;6107;49.078;8.578;2022-12-19T03:28:50;0.30;99.90
12089;DHT22;6107;49.078;8.578;2022-12-19T03:31:21;0.40;99.90
12089;DHT22;6107;49.078;8.578;2022-12-19T03:33:51;0.40;99.90
12089;DHT22;6107;49.078;8.578;2022-12-19T03:36:21;0.40;99.90
12089;DHT22;6107;49.078;8.578;2022-12-19T03:38:49;0.40;99.90
12089;DHT22;6107;49.078;8.578;2022-12-19T03:41:17;0.30;99.90
12089;DHT22;6107;49.078;8.578;2022-12-19T03:44:07;0.40;99.90
12089;DHT22;6107;49.078;8.578;2022-12-19T03:46:34;0.50;99.90
12089;DHT22;6107;49.078;8.578;2022-12-19T03:49:03;0.60;99.90
12089;DHT22;6107;49.078;8.578;2022-12-19T03:54:17;0.40;99.90
12089;DHT22;6107;49.078;8.578;2022-12-19T03:57:01;0.50;99.90
12089;DHT22;6107;49.078;8.578;2022-12-19T03:59:38;0.60;99.90
12089;DHT22;6107;49.078;8.578;2022-12-19T04:02:06;0.70;99.90
12089;DHT22;6107;49.078;8.578;2022-12-19T04:04:36;0.70;99.90
12089;DHT22;6107;49.078;8.578;2022-12-19T04:07:06;0.80;99.90
12089;DHT22;6107;49.078;8.578;2022-12-19T04:09:33;0.80;99.90
12089;DHT22;6107;49.078;8.578;2022-12-19T04:12:03;0.80;99.90
12089;DHT22;6107;49.078;8.578;2022-12-19T04:14:35;0.60;99.90
12089;DHT22;6107;49.078;8.578;2022-12-19T04:25:15;0.50;99.90
12089;DHT22;6107;49.078;8.578;2022-12-19T04:27:47;0.60;99.90
12089;DHT22;6107;49.078;8.578;2022-12-19T04:30:16;0.50;99.90
12089;DHT22;6107;49.078;8.578;2022-12-19T04:32:43;0.60;99.90
12089;DHT22;6107;49.078;8.578;2022-12-19T04:35:09;0.50;99.90
12089;DHT22;6107;49.078;8.578;2022-12-19T04:37:35;0.50;99.90
12089;DHT22;6107;49.078;8.578;2022-12-19T04:40:01;0.70;99.90
12089;DHT22;6107;49.078;8.578;2022-12-19T04:42:26;0.70;99.90
12089;DHT22;6107;49.078;8.578;2022-12-19T04:44:52;0.70;99.90
12089;DHT22;6107;49.078;8.578;2022-12-19T04:47:18;0.80;99.90
12089;DHT22;6107;49.078;8.578;2022-12-19T04:49:43;0.70;99.90
12089;DHT22;6107;49.078;8.578;2022-12-19T04:52:09;0.70;99.90
12089;DHT22;6107;49.078;8.578;2022-12-19T04:54:34;0.80;99.90
12089;DHT22;6107;49.078;8.578;2022-12-19T04:57:00;0.60;99.90
12089;DHT22;6107;49.078;8.578;2022-12-19T04:59:26;0.60;99.90
12089;DHT22;6107;49.078;8.578;2022-12-19T05:01:51;0.50;99.90
12089;DHT22;6107;49.078;8.578;2022-12-19T05:04:17;0.50;99.90
12089;DHT22;6107;49.078;8.578;2022-12-19T05:06:42;0.50;99.90
12089;DHT22;6107;49.078;8.578;2022-12-19T05:09:09;0.50;99.90
12089;DHT22;6107;49.078;8.578;2022-12-19T05:11:35;0.60;99.90
12089;DHT22;6107;49.078;8.578;2022-12-19T05:14:00;0.60;99.90
12089;DHT22;6107;49.078;8.578;2022-12-19T05:16:26;0.70;99.90
12089;DHT22;6107;49.078;8.578;2022-12-19T05:18:52;0.70;99.90
12089;DHT22;6107;49.078;8.578;2022-12-19T05:21:19;0.70;99.90
12089;DHT22;6107;49.078;8.578;2022-12-19T05:23:45;0.60;99.90
12089;DHT22;6107;49.078;8.578;2022-12-19T05:26:11;0.60;99.90
12089;DHT22;6107;49.078;8.578;2022-12-19T05:28:36;0.50;99.90
12089;DHT22;6107;49.078;8.578;2022-12-19T05:31:06;0.50;99.90
12089;DHT22;6107;49.078;8.578;2022-12-19T05:33:32;0.60;99.90
12089;DHT22;6107;49.078;8.578;2022-12-19T05:35:58;0.70;99.90
12089;DHT22;6107;49.078;8.578;2022-12-19T05:38:24;0.80;99.90
12089;DHT22;6107;49.078;8.578;2022-12-19T05:40:50;0.90;99.90
12089;DHT22;6107;49.078;8.578;2022-12-19T05:43:16;0.90;99.90
12089;DHT22;6107;49.078;8.578;2022-12-19T05:45:41;0.80;99.90
12089;DHT22;6107;49.078;8.578;2022-12-19T05:48:07;0.90;99.90
12089;DHT22;6107;49.078;8.578;2022-12-19T05:50:32;1.00;99.90
12089;DHT22;6107;49.078;8.578;2022-12-19T05:52:58;1.10;99.90
12089;DHT22;6107;49.078;8.578;2022-12-19T05:55:24;1.00;99.90
12089;DHT22;6107;49.078;8.578;2022-12-19T05:57:49;0.90;99.90
12089;DHT22;6107;49.078;8.578;2022-12-19T06:00:15;0.90;99.90
12089;DHT22;6107;49.078;8.578;2022-12-19T06:02:41;0.90;99.90
12089;DHT22;6107;49.078;8.578;2022-12-19T06:05:07;1.00;99.90
12089;DHT22;6107;49.078;8.578;2022-12-19T06:07:33;1.10;99.90
12089;DHT22;6107;49.078;8.578;2022-12-19T06:09:59;1.10;99.90
12089;DHT22;6107;49.078;8.578;2022-12-19T06:12:24;1.20;99.90
12089;DHT22;6107;49.078;8.578;2022-12-19T06:14:50;1.00;99.90
12089;DHT22;6107;49.078;8.578;2022-12-19T06:17:15;0.80;99.90
12089;DHT22;6107;49.078;8.578;2022-12-19T06:19:41;0.90;99.90
12089;DHT22;6107;49.078;8.578;2022-12-19T06:22:06;1.00;99.90
12089;DHT22;6107;49.078;8.578;2022-12-19T06:24:32;1.00;99.90
12089;DHT22;6107;49.078;8.578;2022-12-19T06:26:58;1.00;99.90
12089;DHT22;6107;49.078;8.578;2022-12-19T06:29:23;1.00;99.90
12089;DHT22;6107;49.078;8.578;2022-12-19T06:31:49;0.90;99.90
12089;DHT22;6107;49.078;8.578;2022-12-19T06:34:14;0.70;99.90
12089;DHT22;6107;49.078;8.578;2022-12-19T06:36:40;0.70;99.90
12089;DHT22;6107;49.078;8.578;2022-12-19T06:39:06;0.80;99.90
12089;DHT22;6107;49.078;8.578;2022-12-19T06:41:31;1.00;99.90
12089;DHT22;6107;49.078;8.578;2022-12-19T06:44:16;0.90;99.90
12089;DHT22;6107;49.078;8.578;2022-12-19T06:46:42;1.10;99.90
12089;DHT22;6107;49.078;8.578;2022-12-19T06:49:08;1.20;99.90
12089;DHT22;6107;49.078;8.578;2022-12-19T06:51:34;1.30;99.90
12089;DHT22;6107;49.078;8.578;2022-12-19T06:54:00;1.40;99.90
12089;DHT22;6107;49.078;8.578;2022-12-19T06:56:26;1.40;99.90
12089;DHT22;6107;49.078;8.578;2022-12-19T06:58:52;1.50;99.90
12089;DHT22;6107;49.078;8.578;2022-12-19T07:01:42;1.50;99.90
12089;DHT22;6107;49.078;8.578;2022-12-19T07:04:12;1.60;99.90
12089;DHT22;6107;49.078;8.578;2022-12-19T07:06:38;1.70;99.90
12089;DHT22;6107;49.078;8.578;2022-12-19T07:09:04;1.60;99.90
12089;DHT22;6107;49.078;8.578;2022-12-19T07:11:30;1.60;99.90
12089;DHT22;6107;49.078;8.578;2022-12-19T07:13:55;1.40;99.90
12089;DHT22;6107;49.078;8.578;2022-12-19T07:16:22;1.40;99.90
12089;DHT22;6107;49.078;8.578;2022-12-19T07:18:48;1.30;99.90
12089;DHT22;6107;49.078;8.578;2022-12-19T07:21:14;1.30;99.90
12089;DHT22;6107;49.078;8.578;2022-12-19T07:23:40;1.30;99.90
12089;DHT22;6107;49.078;8.578;2022-12-19T07:26:05;1.20;99.90
12089;DHT22;6107;49.078;8.578;2022-12-19T07:28:32;1.20;99.90
12089;DHT22;6107;49.078;8.578;2022-12-19T07:30:58;1.30;99.90
12089;DHT22;6107;49.078;8.578;2022-12-19T07:33:24;1.30;99.90
12089;DHT22;6107;49.078;8.578;2022-12-19T07:35:49;1.20;99.90
12089;DHT22;6107;49.078;8.578;2022-12-19T07:38:15;1.30;99.90
12089;DHT22;6107;49.078;8.578;2022-12-19T07:40:41;1.40;99.90
12089;DHT22;6107;49.078;8.578;2022-12-19T07:43:06;1.30;99.90
12089;DHT22;6107;49.078;8.578;2022-12-19T07:45:32;1.30;99.90
12089;DHT22;6107;49.078;8.578;2022-12-19T07:48:01;1.30;99.90
12089;DHT22;6107;49.078;8.578;2022-12-19T07:50:27;1.20;99.90
12089;DHT22;6107;49.078;8.578;2022-12-19T07:52:53;1.30;99.90
12089;DHT22;6107;49.078;8.578;2022-12-19T07:55:18;1.40;99.90
12089;DHT22;6107;49.078;8.578;2022-12-19T07:57:44;1.40;99.90
12089;DHT22;6107;49.078;8.578;2022-12-19T08:00:10;1.40;99.90
12089;DHT22;6107;49.078;8.578;2022-12-19T08:02:36;1.30;99.90
12089;DHT22;6107;49.078;8.578;2022-12-19T08:05:02;1.40;99.90
12089;DHT22;6107;49.078;8.578;2022-12-19T08:07:28;1.50;99.90
12089;DHT22;6107;49.078;8.578;2022-12-19T08:09:53;1.50;99.90
12089;DHT22;6107;49.078;8.578;2022-12-19T08:12:19;1.50;99.90
12089;DHT22;6107;49.078;8.578;2022-12-19T08:14:45;1.70;99.90
12089;DHT22;6107;49.078;8.578;2022-12-19T08:17:10;1.80;99.90
12089;DHT22;6107;49.078;8.578;2022-12-19T08:19:38;1.70;99.90
12089;DHT22;6107;49.078;8.578;2022-12-19T08:22:03;1.80;99.90
12089;DHT22;6107;49.078;8.578;2022-12-19T08:24:29;1.70;99.90
12089;DHT22;6107;49.078;8.578;2022-12-19T08:26:55;1.70;99.90
12089;DHT22;6107;49.078;8.578;2022-12-19T08:31:47;1.90;99.90
12089;DHT22;6107;49.078;8.578;2022-12-19T08:36:39;1.60;99.90
12089;DHT22;6107;49.078;8.578;2022-12-19T08:39:05;1.70;99.90
12089;DHT22;6107;49.078;8.578;2022-12-19T08:41:31;1.60;99.90
12089;DHT22;6107;49.078;8.578;2022-12-19T08:43:56;1.50;99.90
12089;DHT22;6107;49.078;8.578;2022-12-19T08:46:22;1.50;99.90
12089;DHT22;6107;49.078;8.578;2022-12-19T08:48:48;1.40;99.90
12089;DHT22;6107;49.078;8.578;2022-12-19T08:51:15;1.80;99.90
12089;DHT22;6107;49.078;8.578;2022-12-19T08:53:43;1.60;99.90
12089;DHT22;6107;49.078;8.578;2022-12-19T08:56:20;1.30;99.90
12089;DHT22;6107;49.078;8.578;2022-12-19T08:58:46;1.40;99.90
12089;DHT22;6107;49.078;8.578;2022-12-19T09:01:16;1.80;99.90
12089;DHT22;6107;49.078;8.578;2022-12-19T09:03:44;1.90;99.90
12089;DHT22;6107;49.078;8.578;2022-12-19T09:06:11;1.90;99.90
12089;DHT22;6107;49.078;8.578;2022-12-19T09:08:37;2.10;99.90
12089;DHT22;6107;49.078;8.578;2022-12-19T09:11:06;2.20;99.90
12089;DHT22;6107;49.078;8.578;2022-12-19T09:13:33;2.10;99.90
12089;DHT22;6107;49.078;8.578;2022-12-19T09:18:29;2.20;99.90
12089;DHT22;6107;49.078;8.578;2022-12-19T09:20:56;2.00;99.90
12089;DHT22;6107;49.078;8.578;2022-12-19T09:37:58;2.60;99.90
12089;DHT22;6107;49.078;8.578;2022-12-19T09:40:26;2.70;99.90
12089;DHT22;6107;49.078;8.578;2022-12-19T09:43:24;2.60;99.90
12089;DHT22;6107;49.078;8.578;2022-12-19T09:45:58;2.60;99.90
12089;DHT22;6107;49.078;8.578;2022-12-19T09:48:26;2.70;99.90
12089;DHT22;6107;49.078;8.578;2022-12-19T09:51:12;3.20;99.90
12089;DHT22;6107;49.078;8.578;2022-12-19T09:56:38;2.80;99.90
12089;DHT22;6107;49.078;8.578;2022-12-19T09:59:14;2.90;99.90
12089;DHT22;6107;49.078;8.578;2022-12-19T10:04:49;2.80;99.90
12089;DHT22;6107;49.078;8.578;2022-12-19T10:07:18;3.00;99.90
12089;DHT22;6107;49.078;8.578;2022-12-19T10:09:44;3.30;99.90
12089;DHT22;6107;49.078;8.578;2022-12-19T10:20:36;3.30;99.90
12089;DHT22;6107;49.078;8.578;2022-12-19T10:29:02;3.40;99.90
12089;DHT22;6107;49.078;8.578;2022-12-19T10:31:35;3.50;99.90
12089;DHT22;6107;49.078;8.578;2022-12-19T10:34:19;3.50;99.90
12089;DHT22;6107;49.078;8.578;2022-12-19T10:36:51;3.50;99.90
12089;DHT22;6107;49.078;8.578;2022-12-19T10:39:32;3.40;99.90
12089;DHT22;6107;49.078;8.578;2022-12-19T10:42:11;3.40;99.90
12089;DHT22;6107;49.078;8.578;2022-12-19T10:44:39;3.50;99.90
12089;DHT22;6107;49.078;8.578;2022-12-19T10:47:13;3.70;99.90
12089;DHT22;6107;49.078;8.578;2022-12-19T10:49:39;3.60;99.90
12089;DHT22;6107;49.078;8.578;2022-12-19T10:52:06;3.50;99.90
12089;DHT22;6107;49.078;8.578;2022-12-19T10:57:26;3.50;99.90
12089;DHT22;6107;49.078;8.578;2022-12-19T11:00:14;3.70;99.90
12089;DHT22;6107;49.078;8.578;2022-12-19T11:02:44;3.70;99.90
12089;DHT22;6107;49.078;8.578;2022-12-19T11:05:26;3.90;99.90
12089;DHT22;6107;49.078;8.578;2022-12-19T11:08:18;3.80;99.90
12089;DHT22;6107;49.078;8.578;2022-12-19T11:10:46;3.90;99.90
12089;DHT22;6107;49.078;8.578;2022-12-19T11:13:27;4.00;99.90
12089;DHT22;6107;49.078;8.578;2022-12-19T11:15:57;3.80;99.90
12089;DHT22;6107;49.078;8.578;2022-12-19T11:18:32;3.90;99.90
12089;DHT22;6107;49.078;8.578;2022-12-19T11:20:59;3.80;99.90
12089;DHT22;6107;49.078;8.578;2022-12-19T11:23:27;3.90;99.90
12089;DHT22;6107;49.078;8.578;2022-12-19T11:25:58;4.00;99.90
12089;DHT22;6107;49.078;8.578;2022-12-19T11:28:35;4.00;99.90
12089;DHT22;6107;49.078;8.578;2022-12-19T11:31:10;4.20;99.90
12089;DHT22;6107;49.078;8.578;2022-12-19T11:33:45;4.30;99.90
12089;DHT22;6107;49.078;8.578;2022-12-19T11:39:02;4.30;99.90
12089;DHT22;6107;49.078;8.578;2022-12-19T11:41:37;4.40;99.90
12089;DHT22;6107;49.078;8.578;2022-12-19T11:44:59;4.20;99.90
12089;DHT22;6107;49.078;8.578;2022-12-19T11:52:51;4.20;99.90
12089;DHT22;6107;49.078;8.578;2022-12-19T11:55:27;4.30;99.90
12089;DHT22;6107;49.078;8.578;2022-12-19T11:57:57;4.40;99.90
12089;DHT22;6107;49.078;8.578;2022-12-19T12:00:24;4.50;99.90
12089;DHT22;6107;49.078;8.578;2022-12-19T12:03:30;4.40;99.90
12089;DHT22;6107;49.078;8.578;2022-12-19T12:06:00;4.50;99.90
12089;DHT22;6107;49.078;8.578;2022-12-19T12:08:47;4.40;99.90
12089;DHT22;6107;49.078;8.578;2022-12-19T12:14:19;4.50;99.90
12089;DHT22;6107;49.078;8.578;2022-12-19T12:27:57;4.70;99.90
12089;DHT22;6107;49.078;8.578;2022-12-19T12:30:38;4.80;99.90
12089;DHT22;6107;49.078;8.578;2022-12-19T12:33:18;4.70;99.90
12089;DHT22;6107;49.078;8.578;2022-12-19T12:35:53;4.30;99.90
12089;DHT22;6107;49.078;8.578;2022-12-19T12:38:53;4.60;99.90
12089;DHT22;6107;49.078;8.578;2022-12-19T12:41:40;4.80;99.90
12089;DHT22;6107;49.078;8.578;2022-12-19T12:44:27;4.60;99.90
12089;DHT22;6107;49.078;8.578;2022-12-19T12:47:14;4.60;99.90
12089;DHT22;6107;49.078;8.578;2022-12-19T12:49:45;4.60;99.90
12089;DHT22;6107;49.078;8.578;2022-12-19T12:52:19;4.60;99.90
12089;DHT22;6107;49.078;8.578;2022-12-19T12:54:47;4.50;99.90
12089;DHT22;6107;49.078;8.578;2022-12-19T12:57:34;4.50;99.90
12089;DHT22;6107;49.078;8.578;2022-12-19T13:03:09;4.70;99.90
12089;DHT22;6107;49.078;8.578;2022-12-19T13:06:33;4.80;99.90
12089;DHT22;6107;49.078;8.578;2022-12-19T13:08:45;4.60;99.90
12089;DHT22;6107;49.078;8.578;2022-12-19T13:14:02;4.50;99.90
12089;DHT22;6107;49.078;8.578;2022-12-19T13:19:24;4.90;99.90
12089;DHT22;6107;49.078;8.578;2022-12-19T13:24:39;4.70;99.90
12089;DHT22;6107;49.078;8.578;2022-12-19T13:27:32;4.50;99.90
12089;DHT22;6107;49.078;8.578;2022-12-19T13:35:30;4.20;99.90
12089;DHT22;6107;49.078;8.578;2022-12-19T13:48:56;4.10;99.90
12089;DHT22;6107;49.078;8.578;2022-12-19T13:51:23;3.80;99.90
12089;DHT22;6107;49.078;8.578;2022-12-19T13:53:52;3.70;99.90
12089;DHT22;6107;49.078;8.578;2022-12-19T13:56:19;3.50;99.90
12089;DHT22;6107;49.078;8.578;2022-12-19T13:58:52;3.90;99.90
12089;DHT22;6107;49.078;8.578;2022-12-19T14:01:27;3.70;99.90
12089;DHT22;6107;49.078;8.578;2022-12-19T14:03:56;3.70;99.90
12089;DHT22;6107;49.078;8.578;2022-12-19T14:06:26;4.40;99.90
12089;DHT22;6107;49.078;8.578;2022-12-19T14:08:57;4.00;99.90
12089;DHT22;6107;49.078;8.578;2022-12-19T14:11:26;5.10;99.90
12089;DHT22;6107;49.078;8.578;2022-12-19T14:13:57;4.20;99.90
12089;DHT22;6107;49.078;8.578;2022-12-19T14:16:42;4.20;99.90
12089;DHT22;6107;49.078;8.578;2022-12-19T14:19:20;3.90;99.90
12089;DHT22;6107;49.078;8.578;2022-12-19T14:21:46;3.40;99.90
12089;DHT22;6107;49.078;8.578;2022-12-19T14:26:59;3.40;99.90
12089;DHT22;6107;49.078;8.578;2022-12-19T14:29:30;3.60;99.90
12089;DHT22;6107;49.078;8.578;2022-12-19T14:31:58;3.70;99.90
12089;DHT22;6107;49.078;8.578;2022-12-19T14:34:27;3.10;99.90
12089;DHT22;6107;49.078;8.578;2022-12-19T14:36:57;3.10;99.90
12089;DHT22;6107;49.078;8.578;2022-12-19T14:39:29;3.10;99.90
12089;DHT22;6107;49.078;8.578;2022-12-19T14:42:05;3.20;99.90
12089;DHT22;6107;49.078;8.578;2022-12-19T14:44:52;3.50;99.90
12089;DHT22;6107;49.078;8.578;2022-12-19T14:47:22;3.40;99.90
12089;DHT22;6107;49.078;8.578;2022-12-19T14:49:48;3.40;99.90
12089;DHT22;6107;49.078;8.578;2022-12-19T14:57:47;3.40;99.90
12089;DHT22;6107;49.078;8.578;2022-12-19T15:00:30;3.60;99.90
12089;DHT22;6107;49.078;8.578;2022-12-19T15:02:59;3.30;99.90
12089;DHT22;6107;49.078;8.578;2022-12-19T15:05:26;3.20;99.90
12089;DHT22;6107;49.078;8.578;2022-12-19T15:07:54;3.80;99.90
12089;DHT22;6107;49.078;8.578;2022-12-19T15:10:25;3.50;99.90
12089;DHT22;6107;49.078;8.578;2022-12-19T15:15:43;3.00;99.90
12089;DHT22;6107;49.078;8.578;2022-12-19T15:21:07;2.50;99.90
12089;DHT22;6107;49.078;8.578;2022-12-19T15:23:34;2.30;99.90
12089;DHT22;6107;49.078;8.578;2022-12-19T15:26:01;2.40;99.90
12089;DHT22;6107;49.078;8.578;2022-12-19T15:28:41;2.40;99.90
12089;DHT22;6107;49.078;8.578;2022-12-19T15:31:22;2.60;99.90
12089;DHT22;6107;49.078;8.578;2022-12-19T15:33:50;2.70;99.90
12089;DHT22;6107;49.078;8.578;2022-12-19T15:36:16;2.70;99.90
12089;DHT22;6107;49.078;8.578;2022-12-19T15:38:41;2.80;99.90
12089;DHT22;6107;49.078;8.578;2022-12-19T15:41:12;3.00;99.90
12089;DHT22;6107;49.078;8.578;2022-12-19T15:43:40;2.30;99.90
12089;DHT22;6107;49.078;8.578;2022-12-19T15:46:06;1.80;99.90
12089;DHT22;6107;49.078;8.578;2022-12-19T15:48:32;1.80;99.90
12089;DHT22;6107;49.078;8.578;2022-12-19T15:51:01;1.70;99.90
12089;DHT22;6107;49.078;8.578;2022-12-19T15:53:28;1.80;99.90
12089;DHT22;6107;49.078;8.578;2022-12-19T15:55:57;1.80;99.90
12089;DHT22;6107;49.078;8.578;2022-12-19T15:58:24;1.70;99.90
12089;DHT22;6107;49.078;8.578;2022-12-19T16:01:02;1.70;99.90
12089;DHT22;6107;49.078;8.578;2022-12-19T16:03:29;1.80;99.90
12089;DHT22;6107;49.078;8.578;2022-12-19T16:05:55;2.00;99.90
12089;DHT22;6107;49.078;8.578;2022-12-19T16:08:22;2.20;99.90
12089;DHT22;6107;49.078;8.578;2022-12-19T16:10:54;2.00;99.90
12089;DHT22;6107;49.078;8.578;2022-12-19T16:13:23;2.20;99.90
12089;DHT22;6107;49.078;8.578;2022-12-19T16:15:50;2.20;99.90
12089;DHT22;6107;49.078;8.578;2022-12-19T16:18:16;1.90;99.90
12089;DHT22;6107;49.078;8.578;2022-12-19T16:20:43;1.70;99.90
12089;DHT22;6107;49.078;8.578;2022-12-19T16:23:09;1.30;99.90
12089;DHT22;6107;49.078;8.578;2022-12-19T16:28:07;2.00;99.90
12089;DHT22;6107;49.078;8.578;2022-12-19T16:30:36;1.90;99.90
12089;DHT22;6107;49.078;8.578;2022-12-19T16:33:02;1.90;99.90
12089;DHT22;6107;49.078;8.578;2022-12-19T16:35:28;1.90;99.90
12089;DHT22;6107;49.078;8.578;2022-12-19T16:37:54;1.90;99.90
12089;DHT22;6107;49.078;8.578;2022-12-19T16:40:22;1.70;99.90
12089;DHT22;6107;49.078;8.578;2022-12-19T16:43:04;1.70;99.90
12089;DHT22;6107;49.078;8.578;2022-12-19T16:45:31;1.50;99.90
12089;DHT22;6107;49.078;8.578;2022-12-19T16:47:57;1.50;99.90
12089;DHT22;6107;49.078;8.578;2022-12-19T16:50:26;1.00;99.90
12089;DHT22;6107;49.078;8.578;2022-12-19T16:52:53;1.10;99.90
12089;DHT22;6107;49.078;8.578;2022-12-19T16:55:19;1.70;99.90
12089;DHT22;6107;49.078;8.578;2022-12-19T16:57:47;1.70;99.90
12089;DHT22;6107;49.078;8.578;2022-12-19T17:05:20;1.50;99.90
12089;DHT22;6107;49.078;8.578;2022-12-19T17:07:46;1.60;99.90
12089;DHT22;6107;49.078;8.578;2022-12-19T17:10:12;1.70;99.90
12089;DHT22;6107;49.078;8.578;2022-12-19T17:12:38;1.70;99.90
12089;DHT22;6107;49.078;8.578;2022-12-19T17:15:07;1.90;99.90
12089;DHT22;6107;49.078;8.578;2022-12-19T17:17:38;1.90;99.90
12089;DHT22;6107;49.078;8.578;2022-12-19T17:20:04;2.10;99.90
12089;DHT22;6107;49.078;8.578;2022-12-19T17:22:29;2.00;99.90
12089;DHT22;6107;49.078;8.578;2022-12-19T17:24:55;2.00;99.90
12089;DHT22;6107;49.078;8.578;2022-12-19T17:27:21;1.80;99.90
12089;DHT22;6107;49.078;8.578;2022-12-19T17:29:47;1.70;99.90
12089;DHT22;6107;49.078;8.578;2022-12-19T17:32:16;1.80;99.90
12089;DHT22;6107;49.078;8.578;2022-12-19T17:34:42;1.70;99.90
12089;DHT22;6107;49.078;8.578;2022-12-19T17:37:12;1.60;99.90
12089;DHT22;6107;49.078;8.578;2022-12-19T17:39:39;2.30;99.90
12089;DHT22;6107;49.078;8.578;2022-12-19T17:42:14;2.40;99.90
12089;DHT22;6107;49.078;8.578;2022-12-19T17:44:40;2.00;99.90
12089;DHT22;6107;49.078;8.578;2022-12-19T17:47:06;1.90;99.90
12089;DHT22;6107;49.078;8.578;2022-12-19T17:49:32;1.80;99.90
12089;DHT22;6107;49.078;8.578;2022-12-19T17:51:58;2.00;99.90
12089;DHT22;6107;49.078;8.578;2022-12-19T17:54:25;1.80;99.90
12089;DHT22;6107;49.078;8.578;2022-12-19T17:56:51;1.90;99.90
12089;DHT22;6107;49.078;8.578;2022-12-19T17:59:18;1.90;99.90
12089;DHT22;6107;49.078;8.578;2022-12-19T18:01:44;1.90;99.90
12089;DHT22;6107;49.078;8.578;2022-12-19T18:04:15;1.80;99.90
12089;DHT22;6107;49.078;8.578;2022-12-19T18:06:41;1.90;99.90
12089;DHT22;6107;49.078;8.578;2022-12-19T18:09:21;2.00;99.90
12089;DHT22;6107;49.078;8.578;2022-12-19T18:11:48;2.10;99.90
12089;DHT22;6107;49.078;8.578;2022-12-19T18:14:14;2.00;99.90
12089;DHT22;6107;49.078;8.578;2022-12-19T18:16:41;2.00;99.90
12089;DHT22;6107;49.078;8.578;2022-12-19T18:19:17;1.90;99.90
12089;DHT22;6107;49.078;8.578;2022-12-19T18:21:43;1.80;99.90
12089;DHT22;6107;49.078;8.578;2022-12-19T18:24:10;1.70;99.90
12089;DHT22;6107;49.078;8.578;2022-12-19T18:26:36;1.80;99.90
12089;DHT22;6107;49.078;8.578;2022-12-19T18:29:02;1.80;99.90
12089;DHT22;6107;49.078;8.578;2022-12-19T18:31:30;1.80;99.90
12089;DHT22;6107;49.078;8.578;2022-12-19T18:33:56;1.80;99.90
12089;DHT22;6107;49.078;8.578;2022-12-19T18:36:26;1.80;99.90
12089;DHT22;6107;49.078;8.578;2022-12-19T18:38:52;2.00;99.90